createdAt,value
2023-01-04T00:00:53.325Z,0
2023-01-04T00:01:53.300Z,0
2023-01-04T00:02:53.484Z,0
2023-01-04T00:03:53.410Z,0
2023-01-04T00:04:53.310Z,0
2023-01-04T00:05:53.303Z,0
2023-01-04T00:06:53.309Z,0
2023-01-04T00:07:53.311Z,0
2023-01-04T00:08:53.322Z,0
2023-01-04T00:09:53.307Z,0
2023-01-04T00:10:53.299Z,0
2023-01-04T00:11:53.300Z,0
2023-01-04T00:12:53.304Z,0
2023-01-04T00:13:53.316Z,0
2023-01-04T00:14:53.324Z,0
2023-01-04T00:15:53.375Z,0
2023-01-04T00:16:53.306Z,0
2023-01-04T00:17:53.303Z,0
2023-01-04T00:18:53.317Z,0
2023-01-04T00:19:53.308Z,0
2023-01-04T00:20:53.308Z,0
2023-01-04T00:21:53.362Z,0
2023-01-04T00:22:53.309Z,0
2023-01-04T00:23:53.309Z,0
2023-01-04T00:24:53.329Z,0
2023-01-04T00:25:53.307Z,0
2023-01-04T00:26:53.332Z,0
2023-01-04T00:27:53.299Z,0
2023-01-04T00:28:54.508Z,0
2023-01-04T00:29:53.326Z,0
2023-01-04T00:30:53.361Z,0
2023-01-04T00:31:53.335Z,0
2023-01-04T00:32:53.307Z,0
2023-01-04T00:33:53.299Z,0
2023-01-04T00:34:53.313Z,0
2023-01-04T00:35:53.315Z,0
2023-01-04T00:36:53.302Z,0
2023-01-04T00:37:53.311Z,0
2023-01-04T00:38:53.307Z,0
2023-01-04T00:39:53.309Z,0
2023-01-04T00:40:53.329Z,0
2023-01-04T00:42:01.597Z,0
2023-01-04T00:42:53.314Z,0
2023-01-04T00:43:53.327Z,0
2023-01-04T00:44:53.328Z,0
2023-01-04T00:45:53.380Z,0
2023-01-04T00:46:53.423Z,0
2023-01-04T00:47:53.305Z,0
2023-01-04T00:48:56.694Z,0
2023-01-04T00:49:53.326Z,0
2023-01-04T00:50:53.313Z,0
2023-01-04T00:51:53.322Z,0
2023-01-04T00:52:53.331Z,0
2023-01-04T00:53:53.336Z,0
2023-01-04T00:54:53.340Z,0
2023-01-04T00:55:53.310Z,0
2023-01-04T00:56:53.329Z,0
2023-01-04T00:57:53.334Z,0
2023-01-04T00:58:53.311Z,0
2023-01-04T00:59:53.330Z,0
2023-01-04T01:00:53.319Z,0
2023-01-04T01:01:53.434Z,0
2023-01-04T01:02:53.531Z,0
2023-01-04T01:03:53.354Z,0
2023-01-04T01:04:53.310Z,0
2023-01-04T01:05:53.332Z,0
2023-01-04T01:06:53.314Z,0
2023-01-04T01:07:53.312Z,0
2023-01-04T01:08:53.334Z,0
2023-01-04T01:09:53.312Z,0
2023-01-04T01:10:53.308Z,0
2023-01-04T01:11:53.347Z,0
2023-01-04T01:12:53.400Z,0
2023-01-04T01:13:53.324Z,0
2023-01-04T01:14:57.266Z,0
2023-01-04T01:15:53.353Z,0
2023-01-04T01:16:55.665Z,0
2023-01-04T01:17:53.317Z,0
2023-01-04T01:18:53.323Z,0
2023-01-04T01:19:53.320Z,0
2023-01-04T01:20:53.322Z,0
2023-01-04T01:21:53.360Z,0
2023-01-04T01:22:53.322Z,0
2023-01-04T01:23:53.311Z,0
2023-01-04T01:24:53.328Z,0
2023-01-04T01:25:53.326Z,0
2023-01-04T01:26:53.352Z,0
2023-01-04T01:27:53.341Z,0
2023-01-04T01:28:53.363Z,0
2023-01-04T01:29:53.324Z,0
2023-01-04T01:30:53.327Z,0
2023-01-04T01:31:53.418Z,0
2023-01-04T01:32:53.318Z,0
2023-01-04T01:33:53.331Z,0
2023-01-04T01:34:53.333Z,0
2023-01-04T01:35:53.313Z,0
2023-01-04T01:36:53.335Z,0
2023-01-04T01:37:53.321Z,0
2023-01-04T01:38:53.339Z,0
2023-01-04T01:39:53.345Z,0
2023-01-04T01:40:53.336Z,0
2023-01-04T01:41:53.326Z,0
2023-01-04T01:42:53.318Z,0
2023-01-04T01:43:53.320Z,0
2023-01-04T01:44:53.343Z,0
2023-01-04T01:45:53.432Z,0
2023-01-04T01:46:53.374Z,0
2023-01-04T01:47:53.318Z,0
2023-01-04T01:48:53.325Z,0
2023-01-04T01:49:53.319Z,0
2023-01-04T01:50:53.321Z,0
2023-01-04T01:51:53.325Z,0
2023-01-04T01:52:53.319Z,0
2023-01-04T01:53:53.319Z,0
2023-01-04T01:54:53.327Z,0
2023-01-04T01:55:53.316Z,0
2023-01-04T01:56:53.320Z,0
2023-01-04T01:57:53.337Z,0
2023-01-04T01:58:53.334Z,0
2023-01-04T01:59:53.320Z,0
2023-01-04T02:00:53.341Z,0
2023-01-04T02:01:53.421Z,0
2023-01-04T02:02:53.643Z,0
2023-01-04T02:03:53.337Z,0
2023-01-04T02:04:53.319Z,0
2023-01-04T02:05:53.331Z,0
2023-01-04T02:06:53.325Z,0
2023-01-04T02:07:53.330Z,0
2023-01-04T02:08:53.345Z,0
2023-01-04T02:09:53.327Z,0
2023-01-04T02:10:53.323Z,0
2023-01-04T02:11:53.339Z,0
2023-01-04T02:12:53.330Z,0
2023-01-04T02:13:53.327Z,0
2023-01-04T02:14:53.332Z,0
2023-01-04T02:15:53.346Z,0
2023-01-04T02:16:53.353Z,0
2023-01-04T02:17:53.358Z,0
2023-01-04T02:18:53.331Z,0
2023-01-04T02:19:53.350Z,0
2023-01-04T02:20:53.334Z,0
2023-01-04T02:21:53.336Z,0
2023-01-04T02:22:53.380Z,0
2023-01-04T02:23:53.322Z,0
2023-01-04T02:24:53.326Z,0
2023-01-04T02:25:53.329Z,0
2023-01-04T02:26:53.330Z,0
2023-01-04T02:27:53.333Z,0
2023-01-04T02:28:53.332Z,0
2023-01-04T02:29:53.404Z,0
2023-01-04T02:30:53.350Z,0
2023-01-04T02:31:53.384Z,0
2023-01-04T02:32:53.358Z,0
2023-01-04T02:33:53.355Z,0
2023-01-04T02:34:58.421Z,0
2023-01-04T02:35:53.334Z,0
2023-01-04T02:36:53.315Z,0
2023-01-04T02:37:53.350Z,0
2023-01-04T02:38:53.371Z,0
2023-01-04T02:39:53.341Z,0
2023-01-04T02:40:53.333Z,0
2023-01-04T02:41:53.348Z,0
2023-01-04T02:42:53.328Z,0
2023-01-04T02:43:53.334Z,0
2023-01-04T02:44:53.437Z,0
2023-01-04T02:45:53.345Z,0
2023-01-04T02:46:53.388Z,0
2023-01-04T02:47:53.337Z,0
2023-01-04T02:48:53.373Z,0
2023-01-04T02:49:53.347Z,0
2023-01-04T02:50:53.338Z,0
2023-01-04T02:51:53.319Z,0
2023-01-04T02:52:53.335Z,0
2023-01-04T02:53:53.342Z,0
2023-01-04T02:54:53.330Z,0
2023-01-04T02:55:53.330Z,0
2023-01-04T02:56:53.335Z,0
2023-01-04T02:57:53.338Z,0
2023-01-04T02:58:53.344Z,0
2023-01-04T02:59:53.340Z,0
2023-01-04T03:00:53.330Z,0
2023-01-04T03:01:53.484Z,0
2023-01-04T03:02:53.398Z,0
2023-01-04T03:03:53.409Z,0
2023-01-04T03:04:53.357Z,0
2023-01-04T03:05:53.332Z,0
2023-01-04T03:06:53.330Z,0
2023-01-04T03:07:53.334Z,0
2023-01-04T03:08:53.332Z,0
2023-01-04T03:09:53.333Z,0
2023-01-04T03:10:53.357Z,0
2023-01-04T03:11:53.353Z,0
2023-01-04T03:12:53.363Z,0
2023-01-04T03:13:53.347Z,0
2023-01-04T03:14:53.336Z,0
2023-01-04T03:15:53.384Z,0
2023-01-04T03:16:53.334Z,0
2023-01-04T03:17:53.349Z,0
2023-01-04T03:18:53.367Z,0
2023-01-04T03:19:53.337Z,0
2023-01-04T03:20:53.368Z,0
2023-01-04T03:21:53.346Z,0
2023-01-04T03:22:53.336Z,0
2023-01-04T03:23:53.341Z,0
2023-01-04T03:24:53.340Z,0
2023-01-04T03:25:53.337Z,0
2023-01-04T03:26:53.363Z,0
2023-01-04T03:27:53.356Z,0
2023-01-04T03:28:53.369Z,0
2023-01-04T03:29:53.358Z,0
2023-01-04T03:30:53.415Z,0
2023-01-04T03:31:53.400Z,0
2023-01-04T03:32:53.338Z,0
2023-01-04T03:33:53.334Z,0
2023-01-04T03:34:53.348Z,0
2023-01-04T03:35:53.342Z,0
2023-01-04T03:36:53.382Z,0
2023-01-04T03:37:53.339Z,0
2023-01-04T03:38:53.337Z,0
2023-01-04T03:39:53.332Z,0
2023-01-04T03:40:53.338Z,0
2023-01-04T03:41:53.351Z,0
2023-01-04T03:42:53.379Z,0
2023-01-04T03:43:53.340Z,0
2023-01-04T03:44:53.341Z,0
2023-01-04T03:45:53.336Z,0
2023-01-04T03:46:53.418Z,0
2023-01-04T03:47:53.340Z,0
2023-01-04T03:48:53.351Z,0
2023-01-04T03:49:53.350Z,0
2023-01-04T03:50:53.361Z,0
2023-01-04T03:51:53.346Z,0
2023-01-04T03:52:53.373Z,0
2023-01-04T03:53:53.348Z,0
2023-01-04T03:54:53.344Z,0
2023-01-04T03:55:53.361Z,0
2023-01-04T03:56:53.338Z,0
2023-01-04T03:57:53.347Z,0
2023-01-04T03:58:53.348Z,0
2023-01-04T03:59:53.361Z,0
2023-01-04T04:00:53.427Z,0
2023-01-04T04:01:53.391Z,0
2023-01-04T04:02:53.360Z,0
2023-01-04T04:03:53.370Z,0
2023-01-04T04:04:53.348Z,0
2023-01-04T04:05:53.376Z,0
2023-01-04T04:06:53.348Z,0
2023-01-04T04:07:53.350Z,0
2023-01-04T04:08:53.408Z,0
2023-01-04T04:09:53.345Z,0
2023-01-04T04:10:53.341Z,0
2023-01-04T04:11:53.347Z,0
2023-01-04T04:12:53.353Z,0
2023-01-04T04:13:53.364Z,0
2023-01-04T04:14:53.361Z,0
2023-01-04T04:15:53.353Z,0
2023-01-04T04:16:53.408Z,0
2023-01-04T04:17:53.355Z,0
2023-01-04T04:18:53.363Z,0
2023-01-04T04:19:53.363Z,0
2023-01-04T04:20:53.339Z,0
2023-01-04T04:21:53.376Z,0
2023-01-04T04:22:53.351Z,0
2023-01-04T04:23:53.363Z,0
2023-01-04T04:24:53.373Z,0
2023-01-04T04:25:53.366Z,0
2023-01-04T04:26:53.361Z,0
2023-01-04T04:27:53.352Z,0
2023-01-04T04:28:53.338Z,0
2023-01-04T04:29:53.351Z,0
2023-01-04T04:30:53.376Z,0
2023-01-04T04:31:53.461Z,0
2023-01-04T04:32:53.355Z,0
2023-01-04T04:33:53.344Z,0
2023-01-04T04:34:53.364Z,0
2023-01-04T04:35:53.345Z,0
2023-01-04T04:36:53.364Z,0
2023-01-04T04:37:53.365Z,0
2023-01-04T04:38:53.371Z,0
2023-01-04T04:39:53.361Z,0
2023-01-04T04:40:53.375Z,0
2023-01-04T04:41:53.365Z,0
2023-01-04T04:42:53.375Z,0
2023-01-04T04:43:53.371Z,0
2023-01-04T04:44:53.349Z,0
2023-01-04T04:45:53.420Z,0
2023-01-04T04:46:53.471Z,0
2023-01-04T04:47:53.345Z,0
2023-01-04T04:48:53.356Z,0
2023-01-04T04:49:53.351Z,0
2023-01-04T04:50:53.375Z,0
2023-01-04T04:51:53.388Z,0
2023-01-04T04:52:56.121Z,0
2023-01-04T04:53:53.380Z,0
2023-01-04T04:54:53.347Z,0
2023-01-04T04:55:53.358Z,0
2023-01-04T04:56:53.375Z,0
2023-01-04T04:57:53.365Z,0
2023-01-04T04:58:53.357Z,0
2023-01-04T04:59:53.361Z,0
2023-01-04T05:00:53.423Z,0
2023-01-04T05:01:53.558Z,0
2023-01-04T05:02:53.581Z,0
2023-01-04T05:03:53.381Z,0
2023-01-04T05:04:53.351Z,0
2023-01-04T05:05:53.377Z,0
2023-01-04T05:06:53.358Z,0
2023-01-04T05:07:53.368Z,0
2023-01-04T05:08:53.349Z,0
2023-01-04T05:09:53.352Z,0
2023-01-04T05:10:53.363Z,0
2023-01-04T05:11:53.355Z,0
2023-01-04T05:12:57.736Z,0
2023-01-04T05:13:53.373Z,0
2023-01-04T05:14:53.356Z,0
2023-01-04T05:15:53.375Z,0
2023-01-04T05:16:53.393Z,0
2023-01-04T05:17:53.360Z,0
2023-01-04T05:18:53.349Z,0
2023-01-04T05:19:53.362Z,0
2023-01-04T05:20:53.373Z,0
2023-01-04T05:21:53.364Z,0
2023-01-04T05:22:53.386Z,0
2023-01-04T05:23:53.367Z,0
2023-01-04T05:24:53.351Z,0
2023-01-04T05:25:53.363Z,0
2023-01-04T05:26:53.358Z,0
2023-01-04T05:27:53.368Z,0
2023-01-04T05:28:54.025Z,0
2023-01-04T05:29:53.357Z,0
2023-01-04T05:30:53.507Z,0
2023-01-04T05:31:53.397Z,0
2023-01-04T05:32:53.369Z,0
2023-01-04T05:33:53.371Z,0
2023-01-04T05:34:53.363Z,0
2023-01-04T05:35:53.372Z,0
2023-01-04T05:36:53.366Z,0
2023-01-04T05:37:53.369Z,0
2023-01-04T05:38:53.370Z,0
2023-01-04T05:39:53.396Z,0
2023-01-04T05:40:53.368Z,0
2023-01-04T05:41:53.372Z,0
2023-01-04T05:42:53.386Z,0
2023-01-04T05:43:53.367Z,0
2023-01-04T05:44:53.406Z,0
2023-01-04T05:45:53.407Z,0
2023-01-04T05:46:53.366Z,0
2023-01-04T05:47:53.375Z,0
2023-01-04T05:48:53.368Z,0
2023-01-04T05:49:53.400Z,0
2023-01-04T05:50:53.384Z,0
2023-01-04T05:51:53.369Z,0
2023-01-04T05:52:53.403Z,0
2023-01-04T05:53:53.393Z,0
2023-01-04T05:54:53.377Z,0
2023-01-04T05:55:53.382Z,0
2023-01-04T05:56:53.361Z,0
2023-01-04T05:57:53.404Z,0
2023-01-04T05:58:53.374Z,0
2023-01-04T05:59:53.365Z,0
2023-01-04T06:00:53.394Z,0
2023-01-04T06:01:53.450Z,0
2023-01-04T06:02:53.508Z,0
2023-01-04T06:03:53.451Z,0
2023-01-04T06:04:58.646Z,0
2023-01-04T06:05:53.400Z,0
2023-01-04T06:06:53.372Z,0
2023-01-04T06:07:53.377Z,0
2023-01-04T06:08:53.387Z,0
2023-01-04T06:09:53.381Z,0
2023-01-04T06:10:53.375Z,0
2023-01-04T06:11:53.385Z,0
2023-01-04T06:12:53.375Z,0
2023-01-04T06:13:53.367Z,0
2023-01-04T06:14:53.376Z,0
2023-01-04T06:15:53.377Z,0
2023-01-04T06:16:53.441Z,0
2023-01-04T06:17:53.387Z,0
2023-01-04T06:18:53.379Z,0
2023-01-04T06:19:53.384Z,0
2023-01-04T06:20:53.380Z,0
2023-01-04T06:21:53.416Z,0
2023-01-04T06:22:53.380Z,0
2023-01-04T06:23:53.394Z,0
2023-01-04T06:24:53.398Z,0
2023-01-04T06:25:53.374Z,0
2023-01-04T06:26:53.381Z,0
2023-01-04T06:27:53.382Z,0
2023-01-04T06:28:53.368Z,0
2023-01-04T06:29:53.377Z,0
2023-01-04T06:30:53.450Z,0
2023-01-04T06:31:53.398Z,0
2023-01-04T06:32:53.403Z,0
2023-01-04T06:33:53.389Z,0
2023-01-04T06:34:53.393Z,0
2023-01-04T06:35:53.378Z,0
2023-01-04T06:36:53.392Z,0
2023-01-04T06:37:53.381Z,0
2023-01-04T06:38:53.391Z,0
2023-01-04T06:39:53.379Z,0
2023-01-04T06:40:53.388Z,0
2023-01-04T06:41:53.389Z,0
2023-01-04T06:42:53.388Z,0
2023-01-04T06:43:53.381Z,0
2023-01-04T06:44:53.392Z,0
2023-01-04T06:45:53.444Z,0
2023-01-04T06:46:53.374Z,0
2023-01-04T06:47:53.397Z,0
2023-01-04T06:48:53.411Z,0
2023-01-04T06:49:53.379Z,0
2023-01-04T06:50:53.437Z,0
2023-01-04T06:51:53.398Z,0
2023-01-04T06:52:53.387Z,0
2023-01-04T06:53:53.405Z,0
2023-01-04T06:54:53.384Z,0
2023-01-04T06:55:53.385Z,0
2023-01-04T06:56:53.381Z,0
2023-01-04T06:57:59.127Z,0
2023-01-04T06:58:53.381Z,0
2023-01-04T06:59:53.385Z,0
2023-01-04T07:00:53.482Z,0
2023-01-04T07:01:53.492Z,0
2023-01-04T07:03:13.188Z,0
2023-01-04T07:03:53.384Z,0
2023-01-04T07:04:53.448Z,0
2023-01-04T07:05:53.387Z,0
2023-01-04T07:06:53.392Z,0
2023-01-04T07:07:53.388Z,0
2023-01-04T07:08:53.381Z,0
2023-01-04T07:09:53.400Z,0
2023-01-04T07:10:53.394Z,0
2023-01-04T07:11:53.399Z,0
2023-01-04T07:12:53.399Z,0
2023-01-04T07:13:53.394Z,0
2023-01-04T07:14:53.389Z,0
2023-01-04T07:15:53.438Z,0
2023-01-04T07:16:53.396Z,0
2023-01-04T07:17:53.441Z,0
2023-01-04T07:18:53.393Z,0
2023-01-04T07:19:53.392Z,0
2023-01-04T07:20:53.413Z,0
2023-01-04T07:21:53.395Z,0
2023-01-04T07:22:53.405Z,0
2023-01-04T07:23:53.401Z,0
2023-01-04T07:24:53.403Z,0
2023-01-04T07:25:53.422Z,0
2023-01-04T07:26:53.401Z,0
2023-01-04T07:27:53.430Z,0
2023-01-04T07:28:53.396Z,0
2023-01-04T07:29:53.403Z,0
2023-01-04T07:30:53.450Z,0
2023-01-04T07:31:53.405Z,0
2023-01-04T07:32:53.390Z,0
2023-01-04T07:33:53.417Z,0
2023-01-04T07:34:53.407Z,0
2023-01-04T07:35:53.394Z,0
2023-01-04T07:36:53.419Z,0
2023-01-04T07:37:58.099Z,0
2023-01-04T07:38:53.394Z,0
2023-01-04T07:39:53.417Z,0
2023-01-04T07:40:56.325Z,0
2023-01-04T07:41:53.398Z,0
2023-01-04T07:42:53.395Z,0
2023-01-04T07:43:53.402Z,0
2023-01-04T07:44:53.394Z,0
2023-01-04T07:45:53.480Z,0
2023-01-04T07:46:53.522Z,0
2023-01-04T07:47:53.409Z,0
2023-01-04T07:48:53.393Z,0
2023-01-04T07:49:53.412Z,0
2023-01-04T07:50:53.408Z,0
2023-01-04T07:51:53.432Z,0
2023-01-04T07:52:53.411Z,0
2023-01-04T07:53:53.404Z,0
2023-01-04T07:54:53.421Z,0
2023-01-04T07:55:53.398Z,0
2023-01-04T07:56:53.405Z,0
2023-01-04T07:57:53.421Z,0
2023-01-04T07:58:53.397Z,0
2023-01-04T07:59:53.404Z,0
2023-01-04T08:00:53.413Z,0
2023-01-04T08:01:53.510Z,0
2023-01-04T08:02:53.575Z,0
2023-01-04T08:03:53.407Z,0
2023-01-04T08:04:53.416Z,0
2023-01-04T08:05:53.408Z,0
2023-01-04T08:06:53.399Z,0
2023-01-04T08:07:53.413Z,0
2023-01-04T08:08:53.444Z,0
2023-01-04T08:09:53.415Z,0
2023-01-04T08:10:53.416Z,0
2023-01-04T08:11:53.406Z,0
2023-01-04T08:12:53.410Z,0
2023-01-04T08:13:53.401Z,0
2023-01-04T08:14:53.400Z,0
2023-01-04T08:15:53.416Z,0
2023-01-04T08:16:53.407Z,0
2023-01-04T08:17:53.399Z,0
2023-01-04T08:18:53.413Z,0
2023-01-04T08:19:53.411Z,0
2023-01-04T08:20:58.250Z,0
2023-01-04T08:21:53.410Z,0
2023-01-04T08:22:53.409Z,0
2023-01-04T08:23:53.472Z,0
2023-01-04T08:24:53.441Z,0
2023-01-04T08:25:53.405Z,0
2023-01-04T08:26:53.434Z,0
2023-01-04T08:27:53.407Z,0
2023-01-04T08:28:53.410Z,0
2023-01-04T08:29:53.416Z,0
2023-01-04T08:30:53.423Z,0
2023-01-04T08:31:53.488Z,0
2023-01-04T08:32:53.405Z,0
2023-01-04T08:33:53.424Z,0
2023-01-04T08:34:53.414Z,0
2023-01-04T08:35:53.432Z,0
2023-01-04T08:36:53.432Z,0
2023-01-04T08:37:53.407Z,0
2023-01-04T08:38:59.672Z,0
2023-01-04T08:39:53.413Z,0
2023-01-04T08:40:58.472Z,0
2023-01-04T08:41:58.695Z,0
2023-01-04T08:42:53.410Z,0
2023-01-04T08:43:53.404Z,0
2023-01-04T08:44:58.852Z,0
2023-01-04T08:45:53.408Z,0
2023-01-04T08:46:53.571Z,0
2023-01-04T08:47:53.400Z,0
2023-01-04T08:48:53.452Z,0
2023-01-04T08:49:53.413Z,0
2023-01-04T08:50:53.463Z,0
2023-01-04T08:51:53.419Z,0
2023-01-04T08:52:53.394Z,0
2023-01-04T08:53:53.411Z,0
2023-01-04T08:54:53.414Z,0
2023-01-04T08:55:53.404Z,0
2023-01-04T08:56:53.489Z,0
2023-01-04T08:57:53.406Z,0
2023-01-04T08:58:53.409Z,0
2023-01-04T08:59:53.410Z,0
2023-01-04T09:00:53.404Z,0
2023-01-04T09:01:53.538Z,0
2023-01-04T09:02:53.522Z,0
2023-01-04T09:03:53.448Z,0
2023-01-04T09:04:53.469Z,0
2023-01-04T09:05:53.413Z,0
2023-01-04T09:06:53.409Z,0
2023-01-04T09:07:53.414Z,0
2023-01-04T09:08:53.402Z,0
2023-01-04T09:09:53.437Z,0
2023-01-04T09:10:53.418Z,0
2023-01-04T09:11:53.408Z,0
2023-01-04T09:12:53.520Z,0
2023-01-04T09:13:53.421Z,0
2023-01-04T09:14:53.426Z,0
2023-01-04T09:15:53.436Z,0
2023-01-04T09:16:53.403Z,0
2023-01-04T09:18:20.971Z,0
2023-01-04T09:18:53.499Z,0
2023-01-04T09:19:53.457Z,0
2023-01-04T09:20:53.436Z,0
2023-01-04T09:21:53.508Z,0
2023-01-04T09:22:53.453Z,0
2023-01-04T09:23:53.419Z,0
2023-01-04T09:24:53.395Z,0
2023-01-04T09:25:53.424Z,0
2023-01-04T09:26:53.438Z,0
2023-01-04T09:27:53.420Z,0
2023-01-04T09:28:53.433Z,0
2023-01-04T09:29:53.464Z,0
2023-01-04T09:30:53.447Z,0
2023-01-04T09:31:53.550Z,0
2023-01-04T09:32:53.459Z,0
2023-01-04T09:34:22.825Z,0
2023-01-04T09:34:53.418Z,0
2023-01-04T09:35:53.426Z,0
2023-01-04T09:36:53.420Z,0
2023-01-04T09:37:53.424Z,0
2023-01-04T09:38:53.430Z,0
2023-01-04T09:39:53.430Z,0
2023-01-04T09:40:53.425Z,0
2023-01-04T09:41:53.430Z,4.800000000000001
2023-01-04T09:43:20.782Z,4.1000000000000005
2023-01-04T09:43:53.438Z,1.8
2023-01-04T09:45:53.430Z,0
2023-01-04T09:46:53.550Z,0
2023-01-04T09:47:53.422Z,0
2023-01-04T09:48:53.442Z,0
2023-01-04T09:49:53.437Z,0
2023-01-04T09:50:53.418Z,0
2023-01-04T09:51:53.431Z,0
2023-01-04T09:52:53.475Z,0
2023-01-04T09:53:53.422Z,0
2023-01-04T09:54:54.149Z,0
2023-01-04T09:55:53.437Z,0
2023-01-04T09:56:53.425Z,0
2023-01-04T09:57:53.441Z,0
2023-01-04T09:58:53.433Z,0
2023-01-04T09:59:53.429Z,0
2023-01-04T10:00:53.547Z,0
2023-01-04T10:01:53.693Z,0
2023-01-04T10:02:53.583Z,0
2023-01-04T10:03:53.467Z,0
2023-01-04T10:04:53.432Z,0
2023-01-04T10:05:53.425Z,2.5
2023-01-04T10:06:53.434Z,2.8000000000000003
2023-01-04T10:07:53.427Z,3.7
2023-01-04T10:08:53.420Z,4.7
2023-01-04T10:09:53.449Z,3.8000000000000003
2023-01-04T10:10:53.432Z,2.2
2023-01-04T10:11:53.432Z,2.7
2023-01-04T10:12:58.020Z,0
2023-01-04T10:13:53.435Z,0
2023-01-04T10:14:53.431Z,0
2023-01-04T10:15:53.484Z,0
2023-01-04T10:19:50.602Z,3.3000000000000003
2023-01-04T10:21:23.490Z,0
2023-01-04T10:21:53.502Z,0
2023-01-04T10:22:53.434Z,0
2023-01-04T10:23:53.429Z,0
2023-01-04T10:24:53.463Z,0
2023-01-04T10:25:53.440Z,0
2023-01-04T10:26:53.455Z,0
2023-01-04T10:27:53.439Z,0
2023-01-04T10:28:53.450Z,0
2023-01-04T10:29:53.421Z,0
2023-01-04T10:30:53.440Z,0
2023-01-04T10:31:53.482Z,0
2023-01-04T10:32:53.459Z,0
2023-01-04T10:33:53.443Z,0
2023-01-04T10:34:53.435Z,0
2023-01-04T10:35:53.443Z,0
2023-01-04T10:36:53.444Z,0
2023-01-04T10:37:53.443Z,0
2023-01-04T10:38:53.444Z,0
2023-01-04T10:39:53.441Z,0
2023-01-04T10:40:53.445Z,0
2023-01-04T10:41:53.468Z,0
2023-01-04T10:42:53.437Z,0
2023-01-04T10:44:10.288Z,0
2023-01-04T10:44:53.439Z,0
2023-01-04T10:45:53.456Z,0
2023-01-04T10:46:53.514Z,0
2023-01-04T10:47:53.449Z,0
2023-01-04T10:48:53.546Z,0
2023-01-04T10:49:53.450Z,0
2023-01-04T10:50:53.447Z,0
2023-01-04T10:51:53.467Z,0
2023-01-04T10:52:53.448Z,0
2023-01-04T10:53:53.455Z,0
2023-01-04T10:54:53.457Z,0
2023-01-04T10:56:24.856Z,0
2023-01-04T10:56:53.453Z,0
2023-01-04T10:57:53.463Z,0
2023-01-04T10:58:53.456Z,0
2023-01-04T10:59:53.458Z,0
2023-01-04T11:00:53.505Z,0
2023-01-04T11:01:53.635Z,0
2023-01-04T11:02:53.680Z,0
2023-01-04T11:03:53.483Z,0
2023-01-04T11:04:53.480Z,0
2023-01-04T11:05:53.452Z,0
2023-01-04T11:06:53.442Z,0
2023-01-04T11:07:53.461Z,3.4000000000000004
2023-01-04T11:08:53.446Z,4.3
2023-01-04T11:09:53.466Z,5.2
2023-01-04T11:10:53.467Z,2.1
2023-01-04T11:11:53.459Z,0
2023-01-04T11:12:53.470Z,0
2023-01-04T11:13:53.463Z,3.2
2023-01-04T11:14:53.483Z,0
2023-01-04T11:15:53.494Z,0
2023-01-04T11:16:53.473Z,0
2023-01-04T11:17:53.451Z,6.800000000000001
2023-01-04T11:18:53.451Z,7.4
2023-01-04T11:19:53.465Z,1.2000000000000002
2023-01-04T11:20:53.470Z,0
2023-01-04T11:21:53.449Z,0
2023-01-04T11:22:53.496Z,0
2023-01-04T11:23:56.471Z,0
2023-01-04T11:25:32.869Z,0
2023-01-04T11:25:56.023Z,5.7
2023-01-04T11:26:53.460Z,7.7
2023-01-04T11:27:53.449Z,3.6
2023-01-04T11:28:53.465Z,6.4
2023-01-04T11:29:53.504Z,10
2023-01-04T11:30:53.457Z,2
2023-01-04T11:31:53.525Z,1.3
2023-01-04T11:32:53.459Z,4.7
2023-01-04T11:33:53.472Z,7.9
2023-01-04T11:34:53.468Z,5.2
2023-01-04T11:35:53.449Z,5.1000000000000005
2023-01-04T11:36:53.489Z,0
2023-01-04T11:37:53.487Z,5.2
2023-01-04T11:38:53.466Z,2.5
2023-01-04T11:39:53.484Z,0
2023-01-04T11:40:53.465Z,4.1000000000000005
2023-01-04T11:41:57.411Z,0
2023-01-04T11:42:53.471Z,0
2023-01-04T11:43:53.476Z,0
2023-01-04T11:44:53.472Z,0
2023-01-04T11:45:53.533Z,0
2023-01-04T11:46:53.472Z,0
2023-01-04T11:47:53.482Z,0
2023-01-04T11:48:53.531Z,0
2023-01-04T11:49:53.449Z,6.6000000000000005
2023-01-04T11:50:53.479Z,2.9000000000000004
2023-01-04T11:51:53.492Z,2.1
2023-01-04T11:52:53.494Z,6.7
2023-01-04T11:53:53.456Z,4.9
2023-01-04T11:54:53.462Z,1.5
2023-01-04T11:55:53.463Z,0
2023-01-04T11:56:53.461Z,0
2023-01-04T11:57:53.480Z,0
2023-01-04T11:58:53.473Z,0
2023-01-04T11:59:53.470Z,0
2023-01-04T12:00:53.464Z,0
2023-01-04T12:01:53.549Z,0
2023-01-04T12:03:02.044Z,0
2023-01-04T12:03:53.468Z,0
2023-01-04T12:04:53.473Z,0
2023-01-04T12:05:53.461Z,0
2023-01-04T12:06:53.479Z,0
2023-01-04T12:07:53.456Z,0
2023-01-04T12:08:53.501Z,0
2023-01-04T12:09:53.506Z,0
2023-01-04T12:10:53.478Z,0
2023-01-04T12:11:53.488Z,2.8000000000000003
2023-01-04T12:12:53.469Z,4.2
2023-01-04T12:13:53.505Z,3.7
2023-01-04T12:14:53.489Z,0
2023-01-04T12:15:53.486Z,0
2023-01-04T12:16:53.494Z,0
2023-01-04T12:17:53.489Z,0
2023-01-04T12:18:53.489Z,0
2023-01-04T12:19:53.490Z,0
2023-01-04T12:20:53.457Z,0
2023-01-04T12:21:53.544Z,0
2023-01-04T12:22:53.465Z,0
2023-01-04T12:23:53.479Z,0
2023-01-04T12:24:58.577Z,0
2023-01-04T12:25:53.500Z,0
2023-01-04T12:26:53.486Z,0
2023-01-04T12:27:53.472Z,0
2023-01-04T12:28:53.484Z,0
2023-01-04T12:29:53.469Z,0
2023-01-04T12:30:53.487Z,0
2023-01-04T12:31:53.483Z,0
2023-01-04T12:32:53.496Z,0
2023-01-04T12:33:53.489Z,0
2023-01-04T12:34:53.486Z,0
2023-01-04T12:35:53.496Z,0
2023-01-04T12:36:53.475Z,0
2023-01-04T12:37:53.496Z,0
2023-01-04T12:38:53.479Z,0
2023-01-04T12:39:53.494Z,0
2023-01-04T12:40:53.503Z,0
2023-01-04T12:41:53.489Z,0
2023-01-04T12:42:53.484Z,0
2023-01-04T12:43:53.480Z,0
2023-01-04T12:44:53.498Z,0
2023-01-04T12:45:53.546Z,0
2023-01-04T12:46:53.480Z,0
2023-01-04T12:47:53.475Z,0
2023-01-04T12:48:53.487Z,0
2023-01-04T12:49:53.522Z,0
2023-01-04T12:51:05.915Z,0
2023-01-04T12:52:20.694Z,0
2023-01-04T12:53:53.497Z,0
2023-01-04T12:54:53.470Z,0
2023-01-04T12:55:53.510Z,0
2023-01-04T12:56:53.510Z,0
2023-01-04T12:57:53.504Z,0
2023-01-04T12:59:53.513Z,0
2023-01-04T13:00:53.484Z,0
2023-01-04T13:01:53.625Z,0
2023-01-04T13:02:54.086Z,0
2023-01-04T13:03:53.521Z,0
2023-01-04T13:05:09.645Z,0
2023-01-04T13:05:56.362Z,0
2023-01-04T13:06:53.492Z,0
2023-01-04T13:07:53.502Z,0
2023-01-04T13:08:53.504Z,0
2023-01-04T13:09:53.507Z,0
2023-01-04T13:10:53.651Z,0
2023-01-04T13:11:53.478Z,0
2023-01-04T13:12:53.525Z,0
2023-01-04T13:13:53.502Z,0
2023-01-04T13:14:53.502Z,0
2023-01-04T13:15:53.498Z,0
2023-01-04T13:16:53.594Z,0
2023-01-04T13:17:53.522Z,0
2023-01-04T13:18:53.495Z,0
2023-01-04T13:19:53.511Z,0
2023-01-04T13:20:53.501Z,0
2023-01-04T13:21:53.475Z,0
2023-01-04T13:22:53.522Z,0
2023-01-04T13:23:53.504Z,0
2023-01-04T13:24:53.517Z,0
2023-01-04T13:25:53.499Z,0
2023-01-04T13:26:53.530Z,0
2023-01-04T13:27:53.516Z,0
2023-01-04T13:28:58.027Z,0
2023-01-04T13:29:53.519Z,0
2023-01-04T13:30:53.570Z,0
2023-01-04T13:31:53.550Z,0
2023-01-04T13:33:24.709Z,0
2023-01-04T13:33:53.504Z,0
2023-01-04T13:34:53.499Z,0
2023-01-04T13:35:53.504Z,0
2023-01-04T13:36:53.499Z,0
2023-01-04T13:37:53.516Z,0
2023-01-04T13:38:53.498Z,0
2023-01-04T13:39:53.490Z,0
2023-01-04T13:40:53.509Z,0
2023-01-04T13:41:53.500Z,0
2023-01-04T13:42:53.504Z,0
2023-01-04T13:43:53.506Z,0
2023-01-04T13:45:18.879Z,0
2023-01-04T13:45:53.555Z,0
2023-01-04T13:46:53.584Z,0
2023-01-04T13:47:53.528Z,0
2023-01-04T13:48:53.496Z,0
2023-01-04T13:49:53.520Z,0
2023-01-04T13:50:53.514Z,0
2023-01-04T13:52:01.270Z,0
2023-01-04T13:53:03.917Z,0
2023-01-04T13:53:53.523Z,0
2023-01-04T13:54:53.506Z,0
2023-01-04T13:55:53.529Z,0
2023-01-04T13:56:55.757Z,0
2023-01-04T13:57:53.523Z,0
2023-01-04T13:58:53.509Z,0
2023-01-04T13:59:53.513Z,0
2023-01-04T14:00:53.650Z,0
2023-01-04T14:01:53.769Z,0
2023-01-04T14:02:53.684Z,0
2023-01-04T14:03:53.570Z,0
2023-01-04T14:04:53.504Z,0
2023-01-04T14:05:53.513Z,0
2023-01-04T14:06:53.507Z,0
2023-01-04T14:07:53.510Z,0
2023-01-04T14:08:53.538Z,0
2023-01-04T14:09:53.515Z,0
2023-01-04T14:10:53.548Z,0
2023-01-04T14:11:53.531Z,0
2023-01-04T14:12:53.523Z,0
2023-01-04T14:13:53.519Z,0
2023-01-04T14:14:53.510Z,0
2023-01-04T14:15:53.527Z,0
2023-01-04T14:16:53.553Z,0
2023-01-04T14:17:53.515Z,0
2023-01-04T14:18:53.545Z,0
2023-01-04T14:19:53.593Z,0
2023-01-04T14:20:53.551Z,0
2023-01-04T14:21:53.501Z,0
2023-01-04T14:22:53.513Z,0
2023-01-04T14:23:53.530Z,0
2023-01-04T14:25:53.520Z,0
2023-01-04T14:26:53.547Z,0
2023-01-04T14:27:53.530Z,0
2023-01-04T14:28:53.520Z,0
2023-01-04T14:29:53.542Z,0
2023-01-04T14:30:53.670Z,0
2023-01-04T14:31:53.542Z,0
2023-01-04T14:32:53.548Z,0
2023-01-04T14:33:53.526Z,0
2023-01-04T14:35:53.525Z,0
2023-01-04T14:36:53.521Z,0
2023-01-04T14:37:53.534Z,0
2023-01-04T14:38:53.508Z,0
2023-01-04T14:39:53.526Z,0
2023-01-04T14:40:53.520Z,0
2023-01-04T14:41:53.532Z,0
2023-01-04T14:42:53.523Z,0
2023-01-04T14:43:53.548Z,0
2023-01-04T14:44:53.527Z,0
2023-01-04T14:45:53.538Z,0